Terminal Aerodrome Forecast
Issued by NWS

Home | Current Version | Previous Version | Text Only | Print | Product List | Glossary On
Versions: 1 2 3 4 5 6 7 8 9 10 11 12 13 14 15 16 17 18 19 20 21 22 23 24 25 26
000
FTUS44 KOUN 191722
TAFGAG
TAF
KGAG 191722Z 1918/2018 18013G18KT P6SM BKN025
     FM200100 15008KT P6SM SCT030 BKN150
     FM201000 17004KT 5SM BR BKN030
     FM201500 20008KT P6SM BKN020 BKN150=

USA.gov is the U.S. government's official web portal to all federal, state and local government web resources and services.